Flight Track Log - Related Links

Times and Time Zones

All times are in EDT time to prevent confusion due to time zone crossing. See the XOJ552 flight status page for this flight to view local times or setup timezone preferences in your user account.

Time Position Orientation Groundspeed Altitude Reporting Facility
EDT Latitude Longitude Course Direction KTS MPH feet Rate Location/Type
Sun 05:35:30 PM 37.7108 -122.1894 107° East 173 199 1,600  Level Oakland Center
Sun 05:36:31 PM 37.6503 -122.1708 166° South 257 296 5,900 4,663 Climbing Oakland Center
Sun 05:38:00 PM 37.5322 -122.0411 218° Southwest  Level Estimated
Sun 05:38:34 PM 37.5108 -122.1525 218° Southwest 296 341 15,900  Level Oakland Center
Sun 05:39:35 PM 37.4292 -122.0881 148° Southeast 352 405 18,900 3,366 Climbing Oakland Center
Sun 05:40:37 PM 37.3444 -122.0169 146° Southeast 366 421 22,800 3,561 Climbing Oakland Center
Sun 05:41:00 PM 37.2378 -122.2346 107° East  Level FlightAware Approximate
Sun 05:41:38 PM 37.2583 -121.9489 148° Southeast 365 420 26,200  Level Oakland Center
Sun 05:42:40 PM 37.1686 -121.8769 147° Southeast 381 438 27,900 2,098 Climbing Oakland Center
Sun 05:43:41 PM 37.0756 -121.8031 148° Southeast 395 455 30,500 2,361 Climbing Oakland Center
Sun 05:44:42 PM 36.9608 -121.7097 147° Southeast 407 468 32,700 1,902 Climbing Oakland Center
Sun 05:45:44 PM 36.8661 -121.6131 141° Southeast 434 499 34,400 1,659 Climbing Oakland Center
Sun 05:46:45 PM 36.7739 -121.5200 141° Southeast 444 511 36,100 1,659 Climbing Oakland Center
Sun 05:47:47 PM 36.6756 -121.4206 141° Southeast 454 522 37,800 1,366 Climbing Oakland Center
Sun 05:48:48 PM 36.5783 -121.3203 140° Southeast 454 522 38,900 1,073 Climbing Oakland Center
Sun 05:49:50 PM 36.4769 -121.2211 142° Southeast 461 531 40,000 976 Climbing Oakland Center
Sun 05:50:51 PM 36.3753 -121.1192 141° Southeast 467 537 40,900 488 Climbing Oakland Center
Sun 05:51:53 PM 36.2522 -120.9972 141° Southeast 471 542 41,000 49 Climbing Oakland Center
Sun 05:52:54 PM 36.1483 -120.8942 141° Southeast 478 550 41,000  Level Oakland Center
Sun 05:53:56 PM 36.0439 -120.7914 141° Southeast 478 550 41,000  Level Oakland Center
Sun 05:54:57 PM 35.9400 -120.6883 141° Southeast 479 551 41,000  Level Oakland Center
Sun 05:55:59 PM 35.8369 -120.5864 141° Southeast 477 549 41,000  Level Oakland Center
Sun 05:57:00 PM 35.7342 -120.4864 142° Southeast 472 543 41,000  Level Oakland Center
Sun 05:58:02 PM 35.6306 -120.3867 142° Southeast 470 541 41,000  Level Oakland Center
Sun 05:59:03 PM 35.5267 -120.2858 142° Southeast 469 540 41,000  Level Oakland Center
Sun 06:00:05 PM 35.4272 -120.1897 142° Southeast 469 540 41,000  Level Oakland Center
Sun 06:01:16 PM 35.2953 -120.0594 141° Southeast 477 549 41,000  Level Los Angeles Center
Sun 06:03:09 PM 35.0889 -119.8600 142° Southeast 472 543 41,000  Level Oakland Center
Sun 06:04:11 PM 34.9967 -119.7436 134° Southeast 476 548 41,000  Level Oakland Center
Sun 06:05:12 PM 34.9053 -119.6272 134° Southeast 476 548 41,000  Level Oakland Center
Sun 06:06:14 PM 34.8131 -119.5114 134° Southeast 476 548 41,000  Level Oakland Center
Sun 06:07:16 PM 34.7208 -119.3947 134° Southeast 478 550 41,000  Level Oakland Center
Sun 06:08:31 PM 34.5978 -119.2467 135° Southeast 480 552 41,000  Level Los Angeles Center
Sun 06:09:33 PM 34.5050 -119.1328 135° Southeast 477 549 41,000  Level Los Angeles Center
Sun 06:10:35 PM 34.4106 -119.0167 135° Southeast 481 554 41,000  Level Los Angeles Center
Sun 06:11:37 PM 34.3172 -118.9019 135° Southeast 482 555 41,000  Level Los Angeles Center
Sun 06:12:40 PM 34.2056 -118.7633 134° Southeast 480 552 41,000  Level Los Angeles Center
Sun 06:13:41 PM 34.1117 -118.6500 135° Southeast 479 551 41,000 -293 Level Los Angeles Center
Sun 06:14:43 PM 34.0172 -118.5353 135° Southeast 480 552 40,400 -1,500 Descending Los Angeles Center
Sun 06:15:45 PM 33.9250 -118.4231 135° Southeast 473 544 37,900 -2,453 Descending Los Angeles Center
Sun 06:17:00 PM 33.8086 -118.2778 134° Southeast 465 535 34,800 -2,409 Descending Los Angeles Center
Sun 06:18:02 PM 33.7239 -118.1653 132° Southeast 474 545 32,400 -2,468 Descending Los Angeles Center
Sun 06:19:04 PM 33.6325 -118.0503 134° Southeast 475 547 29,700 -2,613 Descending Los Angeles Center
Sun 06:20:06 PM 33.5450 -117.9392 133° Southeast 462 532 27,000 -2,806 Descending Los Angeles Center
Sun 06:21:08 PM 33.4483 -117.8175 134° Southeast 422 486 23,900 -2,710 Descending Los Angeles Center
Sun 06:22:10 PM 33.3694 -117.7169 133° Southeast 416 479 21,400 -2,409 Descending Los Angeles Center
Sun 06:23:15 PM 33.2833 -117.6167 136° Southeast 391 450 18,800 -2,304 Descending Southern California TRACON
Sun 06:24:15 PM 33.2000 -117.5333 140° Southeast 382 440 16,600 -2,129 Descending Southern California TRACON
Sun 06:26:21 PM 33.0333 -117.4000 146° Southeast 358 412 12,200 -2,032 Descending Southern California TRACON
Sun 06:27:21 PM 32.9500 -117.3500 153° Southeast 319 367 10,300 -1,513 Descending Southern California TRACON
Sun 06:28:16 PM 32.9000 -117.2833 132° Southeast 293 337 9,300 -1,252 Descending Southern California TRACON
Sun 06:29:16 PM 32.8500 -117.2000 126° Southeast 290 334 7,900 -1,600 Descending Southern California TRACON
Sun 06:30:16 PM 32.8167 -117.1167 115° Southeast 286 329 6,100 -1,450 Descending Southern California TRACON
Sun 06:31:16 PM 32.7833 -117.0333 115° Southeast 253 291 5,000 -524 Descending Southern California TRACON
Sun 06:32:22 PM 32.7500 -116.9667 121° Southeast 188 216 5,000 -99 Level Southern California TRACON
Sun 06:33:17 PM 32.7167 -116.9500 157° South 182 209 4,800 -645 Descending Southern California TRACON
Sun 06:34:23 PM 32.6833 -116.9667 203° Southwest 191 220 3,700 -1,095 Descending Southern California TRACON
Sun 06:35:23 PM 32.7000 -117.0167 292° West 191 220 2,500 -1,000 Descending Southern California TRACON
Sun 06:36:23 PM 32.7000 -117.0833 270° West 170 196 1,700 -700 Descending Southern California TRACON
Sun 06:37:23 PM 32.7167 -117.1333 292° West 140 161 1,100 -532 Descending Southern California TRACON
Sun 06:37:42 PM 32.7197 -117.1331 North 151 174 1,000 -593 Descending Los Angeles Center
Sun 06:38:44 PM 32.7319 -117.1772 288° West 141 162 300 -677 Descending Los Angeles Center
Sun 06:40:00 PM 32.7333 -117.1833 248° West  Level FlightAware Approximate
Sun 06:47:00 PM 32.7336 -117.1897 248° West  Level Estimated

Login

Don't have an account? Register now (free) for customized features, flight alerts, and more!